sensor_id;sensor_type;location;lat;lon;timestamp;P1;durP1;ratioP1;P2;durP2;ratioP2
4766;SDS011;2397;53.576;9.746;2023-06-22T00:02:26;4.13;;;3.80;;
4766;SDS011;2397;53.576;9.746;2023-06-22T00:04:52;3.60;;;3.20;;
4766;SDS011;2397;53.576;9.746;2023-06-22T00:07:19;3.63;;;3.33;;
4766;SDS011;2397;53.576;9.746;2023-06-22T00:09:46;4.30;;;4.00;;
4766;SDS011;2397;53.576;9.746;2023-06-22T00:12:12;6.57;;;3.73;;
4766;SDS011;2397;53.576;9.746;2023-06-22T00:14:39;3.60;;;3.40;;
4766;SDS011;2397;53.576;9.746;2023-06-22T00:17:05;3.80;;;3.50;;
4766;SDS011;2397;53.576;9.746;2023-06-22T00:19:32;3.30;;;3.00;;
4766;SDS011;2397;53.576;9.746;2023-06-22T00:22:02;3.70;;;3.37;;
4766;SDS011;2397;53.576;9.746;2023-06-22T00:24:30;3.50;;;3.20;;
4766;SDS011;2397;53.576;9.746;2023-06-22T00:26:56;4.00;;;3.60;;
4766;SDS011;2397;53.576;9.746;2023-06-22T00:29:23;3.80;;;3.50;;
4766;SDS011;2397;53.576;9.746;2023-06-22T00:31:51;3.97;;;3.47;;
4766;SDS011;2397;53.576;9.746;2023-06-22T00:34:18;3.93;;;3.50;;
4766;SDS011;2397;53.576;9.746;2023-06-22T00:36:44;3.90;;;3.60;;
4766;SDS011;2397;53.576;9.746;2023-06-22T00:39:11;5.30;;;3.60;;
4766;SDS011;2397;53.576;9.746;2023-06-22T00:41:39;3.70;;;3.40;;
4766;SDS011;2397;53.576;9.746;2023-06-22T00:44:05;3.90;;;3.60;;
4766;SDS011;2397;53.576;9.746;2023-06-22T00:46:33;4.10;;;3.80;;
4766;SDS011;2397;53.576;9.746;2023-06-22T00:48:59;4.17;;;3.77;;
4766;SDS011;2397;53.576;9.746;2023-06-22T00:51:27;5.90;;;4.50;;
4766;SDS011;2397;53.576;9.746;2023-06-22T00:53:54;4.17;;;3.87;;
4766;SDS011;2397;53.576;9.746;2023-06-22T00:56:21;5.63;;;3.87;;
4766;SDS011;2397;53.576;9.746;2023-06-22T00:58:51;4.27;;;3.87;;
4766;SDS011;2397;53.576;9.746;2023-06-22T01:01:19;3.70;;;3.40;;
4766;SDS011;2397;53.576;9.746;2023-06-22T01:03:50;3.87;;;3.57;;
4766;SDS011;2397;53.576;9.746;2023-06-22T01:06:20;4.50;;;3.83;;
4766;SDS011;2397;53.576;9.746;2023-06-22T01:09:06;4.23;;;3.83;;
4766;SDS011;2397;53.576;9.746;2023-06-22T01:11:42;4.27;;;3.97;;
4766;SDS011;2397;53.576;9.746;2023-06-22T01:14:15;4.67;;;4.03;;
4766;SDS011;2397;53.576;9.746;2023-06-22T01:16:55;3.53;;;3.23;;
4766;SDS011;2397;53.576;9.746;2023-06-22T01:22:15;4.53;;;4.17;;
4766;SDS011;2397;53.576;9.746;2023-06-22T01:30:07;3.90;;;3.60;;
4766;SDS011;2397;53.576;9.746;2023-06-22T01:32:37;3.97;;;3.57;;
4766;SDS011;2397;53.576;9.746;2023-06-22T01:35:06;6.23;;;4.47;;
4766;SDS011;2397;53.576;9.746;2023-06-22T01:37:34;4.57;;;4.17;;
4766;SDS011;2397;53.576;9.746;2023-06-22T01:40:03;5.00;;;3.90;;
4766;SDS011;2397;53.576;9.746;2023-06-22T01:42:32;4.50;;;4.10;;
4766;SDS011;2397;53.576;9.746;2023-06-22T01:44:59;4.43;;;3.90;;
4766;SDS011;2397;53.576;9.746;2023-06-22T01:47:29;4.27;;;3.87;;
4766;SDS011;2397;53.576;9.746;2023-06-22T01:49:56;5.00;;;4.50;;
4766;SDS011;2397;53.576;9.746;2023-06-22T01:52:23;4.20;;;3.90;;
4766;SDS011;2397;53.576;9.746;2023-06-22T01:54:50;6.00;;;3.83;;
4766;SDS011;2397;53.576;9.746;2023-06-22T01:57:18;4.00;;;3.70;;
4766;SDS011;2397;53.576;9.746;2023-06-22T02:02:24;6.67;;;4.37;;
4766;SDS011;2397;53.576;9.746;2023-06-22T02:04:57;4.60;;;4.10;;
4766;SDS011;2397;53.576;9.746;2023-06-22T02:07:28;4.60;;;4.20;;
4766;SDS011;2397;53.576;9.746;2023-06-22T02:10:01;6.73;;;4.50;;
4766;SDS011;2397;53.576;9.746;2023-06-22T02:12:29;4.50;;;4.10;;
4766;SDS011;2397;53.576;9.746;2023-06-22T02:14:58;7.17;;;4.03;;
4766;SDS011;2397;53.576;9.746;2023-06-22T02:17:27;4.23;;;3.77;;
4766;SDS011;2397;53.576;9.746;2023-06-22T02:19:55;4.27;;;3.87;;
4766;SDS011;2397;53.576;9.746;2023-06-22T02:22:22;4.67;;;4.27;;
4766;SDS011;2397;53.576;9.746;2023-06-22T02:24:50;4.13;;;3.67;;
4766;SDS011;2397;53.576;9.746;2023-06-22T02:27:18;4.40;;;4.10;;
4766;SDS011;2397;53.576;9.746;2023-06-22T02:29:47;4.40;;;4.10;;
4766;SDS011;2397;53.576;9.746;2023-06-22T02:32:13;4.20;;;3.60;;
4766;SDS011;2397;53.576;9.746;2023-06-22T02:34:41;4.53;;;4.13;;
4766;SDS011;2397;53.576;9.746;2023-06-22T02:37:09;4.33;;;3.93;;
4766;SDS011;2397;53.576;9.746;2023-06-22T02:39:39;5.00;;;4.60;;
4766;SDS011;2397;53.576;9.746;2023-06-22T02:42:06;4.53;;;4.13;;
4766;SDS011;2397;53.576;9.746;2023-06-22T02:44:33;4.50;;;4.17;;
4766;SDS011;2397;53.576;9.746;2023-06-22T02:47:00;4.63;;;4.23;;
4766;SDS011;2397;53.576;9.746;2023-06-22T02:49:26;4.60;;;4.20;;
4766;SDS011;2397;53.576;9.746;2023-06-22T02:51:53;4.40;;;4.10;;
4766;SDS011;2397;53.576;9.746;2023-06-22T02:54:21;4.30;;;3.90;;
4766;SDS011;2397;53.576;9.746;2023-06-22T02:56:51;4.30;;;4.00;;
4766;SDS011;2397;53.576;9.746;2023-06-22T02:59:18;4.30;;;3.87;;
4766;SDS011;2397;53.576;9.746;2023-06-22T03:01:52;5.27;;;4.53;;
4766;SDS011;2397;53.576;9.746;2023-06-22T03:04:24;6.03;;;4.07;;
4766;SDS011;2397;53.576;9.746;2023-06-22T03:06:50;5.20;;;4.80;;
4766;SDS011;2397;53.576;9.746;2023-06-22T03:09:18;5.10;;;4.70;;
4766;SDS011;2397;53.576;9.746;2023-06-22T03:11:45;5.27;;;4.77;;
4766;SDS011;2397;53.576;9.746;2023-06-22T03:14:12;6.67;;;4.87;;
4766;SDS011;2397;53.576;9.746;2023-06-22T03:16:38;5.60;;;5.20;;
4766;SDS011;2397;53.576;9.746;2023-06-22T03:19:07;6.13;;;5.10;;
4766;SDS011;2397;53.576;9.746;2023-06-22T03:21:34;5.00;;;4.60;;
4766;SDS011;2397;53.576;9.746;2023-06-22T03:24:00;5.47;;;5.07;;
4766;SDS011;2397;53.576;9.746;2023-06-22T03:26:27;5.13;;;4.63;;
4766;SDS011;2397;53.576;9.746;2023-06-22T03:28:53;5.13;;;4.73;;
4766;SDS011;2397;53.576;9.746;2023-06-22T03:31:21;5.03;;;4.53;;
4766;SDS011;2397;53.576;9.746;2023-06-22T03:33:49;5.63;;;5.13;;
4766;SDS011;2397;53.576;9.746;2023-06-22T03:36:16;5.87;;;4.90;;
4766;SDS011;2397;53.576;9.746;2023-06-22T03:38:47;5.87;;;5.03;;
4766;SDS011;2397;53.576;9.746;2023-06-22T03:41:15;8.67;;;5.67;;
4766;SDS011;2397;53.576;9.746;2023-06-22T03:43:42;8.77;;;4.83;;
4766;SDS011;2397;53.576;9.746;2023-06-22T03:46:09;6.20;;;5.40;;
4766;SDS011;2397;53.576;9.746;2023-06-22T03:48:36;6.13;;;5.63;;
4766;SDS011;2397;53.576;9.746;2023-06-22T03:51:02;5.73;;;5.20;;
4766;SDS011;2397;53.576;9.746;2023-06-22T03:53:29;6.30;;;5.60;;
4766;SDS011;2397;53.576;9.746;2023-06-22T03:55:56;9.90;;;5.17;;
4766;SDS011;2397;53.576;9.746;2023-06-22T03:58:23;6.73;;;6.03;;
4766;SDS011;2397;53.576;9.746;2023-06-22T04:00:50;5.77;;;5.30;;
4766;SDS011;2397;53.576;9.746;2023-06-22T04:03:18;6.73;;;5.80;;
4766;SDS011;2397;53.576;9.746;2023-06-22T04:05:46;5.23;;;4.83;;
4766;SDS011;2397;53.576;9.746;2023-06-22T04:08:14;6.67;;;6.07;;
4766;SDS011;2397;53.576;9.746;2023-06-22T04:10:42;6.30;;;5.70;;
4766;SDS011;2397;53.576;9.746;2023-06-22T04:13:08;10.23;;;5.93;;
4766;SDS011;2397;53.576;9.746;2023-06-22T04:15:35;8.47;;;5.90;;
4766;SDS011;2397;53.576;9.746;2023-06-22T04:18:02;6.53;;;5.00;;
4766;SDS011;2397;53.576;9.746;2023-06-22T04:20:29;5.43;;;4.93;;
4766;SDS011;2397;53.576;9.746;2023-06-22T04:22:55;8.57;;;6.07;;
4766;SDS011;2397;53.576;9.746;2023-06-22T04:25:22;9.60;;;6.60;;
4766;SDS011;2397;53.576;9.746;2023-06-22T04:27:49;7.07;;;6.37;;
4766;SDS011;2397;53.576;9.746;2023-06-22T04:30:16;10.10;;;6.87;;
4766;SDS011;2397;53.576;9.746;2023-06-22T04:32:43;8.27;;;6.93;;
4766;SDS011;2397;53.576;9.746;2023-06-22T04:35:11;14.63;;;8.70;;
4766;SDS011;2397;53.576;9.746;2023-06-22T04:37:38;12.23;;;8.73;;
4766;SDS011;2397;53.576;9.746;2023-06-22T04:40:05;7.83;;;7.07;;
4766;SDS011;2397;53.576;9.746;2023-06-22T04:42:34;8.80;;;7.90;;
4766;SDS011;2397;53.576;9.746;2023-06-22T04:45:02;7.27;;;6.30;;
4766;SDS011;2397;53.576;9.746;2023-06-22T04:47:30;11.13;;;8.23;;
4766;SDS011;2397;53.576;9.746;2023-06-22T04:49:57;7.80;;;6.80;;
4766;SDS011;2397;53.576;9.746;2023-06-22T04:52:23;9.60;;;7.77;;
4766;SDS011;2397;53.576;9.746;2023-06-22T04:54:51;8.70;;;7.60;;
4766;SDS011;2397;53.576;9.746;2023-06-22T04:57:21;7.80;;;6.43;;
4766;SDS011;2397;53.576;9.746;2023-06-22T04:59:59;13.60;;;6.20;;
4766;SDS011;2397;53.576;9.746;2023-06-22T05:02:41;8.50;;;7.27;;
4766;SDS011;2397;53.576;9.746;2023-06-22T05:05:08;7.47;;;6.77;;
4766;SDS011;2397;53.576;9.746;2023-06-22T05:07:35;8.77;;;6.70;;
4766;SDS011;2397;53.576;9.746;2023-06-22T05:10:02;8.40;;;6.67;;
4766;SDS011;2397;53.576;9.746;2023-06-22T05:12:30;8.97;;;6.73;;
4766;SDS011;2397;53.576;9.746;2023-06-22T05:14:56;8.43;;;6.20;;
4766;SDS011;2397;53.576;9.746;2023-06-22T05:17:23;8.70;;;7.80;;
4766;SDS011;2397;53.576;9.746;2023-06-22T05:19:51;8.33;;;7.23;;
4766;SDS011;2397;53.576;9.746;2023-06-22T05:22:17;8.60;;;7.80;;
4766;SDS011;2397;53.576;9.746;2023-06-22T05:24:45;8.40;;;6.80;;
4766;SDS011;2397;53.576;9.746;2023-06-22T05:27:13;8.63;;;7.73;;
4766;SDS011;2397;53.576;9.746;2023-06-22T05:29:40;7.53;;;6.27;;
4766;SDS011;2397;53.576;9.746;2023-06-22T05:32:07;9.83;;;6.20;;
4766;SDS011;2397;53.576;9.746;2023-06-22T05:34:34;7.27;;;6.60;;
4766;SDS011;2397;53.576;9.746;2023-06-22T05:37:01;6.30;;;5.80;;
4766;SDS011;2397;53.576;9.746;2023-06-22T05:39:29;7.57;;;6.60;;
4766;SDS011;2397;53.576;9.746;2023-06-22T05:41:55;8.70;;;6.60;;
4766;SDS011;2397;53.576;9.746;2023-06-22T05:44:22;7.10;;;5.83;;
4766;SDS011;2397;53.576;9.746;2023-06-22T05:46:48;5.57;;;5.00;;
4766;SDS011;2397;53.576;9.746;2023-06-22T05:49:15;10.23;;;5.60;;
4766;SDS011;2397;53.576;9.746;2023-06-22T05:51:42;6.03;;;5.40;;
4766;SDS011;2397;53.576;9.746;2023-06-22T05:54:09;7.20;;;6.00;;
4766;SDS011;2397;53.576;9.746;2023-06-22T05:56:36;6.67;;;5.60;;
4766;SDS011;2397;53.576;9.746;2023-06-22T05:59:03;6.20;;;5.60;;
4766;SDS011;2397;53.576;9.746;2023-06-22T06:01:30;7.23;;;6.33;;
4766;SDS011;2397;53.576;9.746;2023-06-22T06:04:02;7.83;;;6.23;;
4766;SDS011;2397;53.576;9.746;2023-06-22T06:06:30;8.23;;;6.00;;
4766;SDS011;2397;53.576;9.746;2023-06-22T06:08:57;7.63;;;6.03;;
4766;SDS011;2397;53.576;9.746;2023-06-22T06:11:25;7.03;;;5.60;;
4766;SDS011;2397;53.576;9.746;2023-06-22T06:13:52;8.60;;;6.10;;
4766;SDS011;2397;53.576;9.746;2023-06-22T06:16:18;9.03;;;5.93;;
4766;SDS011;2397;53.576;9.746;2023-06-22T06:18:45;6.57;;;5.97;;
4766;SDS011;2397;53.576;9.746;2023-06-22T06:21:12;6.73;;;5.37;;
4766;SDS011;2397;53.576;9.746;2023-06-22T06:23:38;5.47;;;4.97;;
4766;SDS011;2397;53.576;9.746;2023-06-22T06:26:05;6.77;;;6.17;;
4766;SDS011;2397;53.576;9.746;2023-06-22T06:28:33;6.50;;;5.90;;
4766;SDS011;2397;53.576;9.746;2023-06-22T06:31:00;6.23;;;5.63;;
4766;SDS011;2397;53.576;9.746;2023-06-22T06:33:27;12.80;;;6.20;;
4766;SDS011;2397;53.576;9.746;2023-06-22T06:35:54;7.43;;;5.07;;
4766;SDS011;2397;53.576;9.746;2023-06-22T06:38:22;5.97;;;5.50;;
4766;SDS011;2397;53.576;9.746;2023-06-22T06:40:49;5.60;;;5.10;;
4766;SDS011;2397;53.576;9.746;2023-06-22T06:43:16;6.70;;;3.90;;
4766;SDS011;2397;53.576;9.746;2023-06-22T06:45:42;6.20;;;5.57;;
4766;SDS011;2397;53.576;9.746;2023-06-22T06:48:09;5.63;;;5.13;;
4766;SDS011;2397;53.576;9.746;2023-06-22T06:50:36;4.70;;;4.20;;
4766;SDS011;2397;53.576;9.746;2023-06-22T06:53:03;7.40;;;6.47;;
4766;SDS011;2397;53.576;9.746;2023-06-22T06:55:29;6.90;;;5.70;;
4766;SDS011;2397;53.576;9.746;2023-06-22T06:57:59;5.70;;;5.20;;
4766;SDS011;2397;53.576;9.746;2023-06-22T07:00:26;5.20;;;4.70;;
4766;SDS011;2397;53.576;9.746;2023-06-22T07:02:53;5.00;;;4.60;;
4766;SDS011;2397;53.576;9.746;2023-06-22T07:05:20;4.40;;;4.00;;
4766;SDS011;2397;53.576;9.746;2023-06-22T07:07:46;5.80;;;4.30;;
4766;SDS011;2397;53.576;9.746;2023-06-22T07:10:13;6.00;;;4.40;;
4766;SDS011;2397;53.576;9.746;2023-06-22T07:12:41;5.30;;;4.10;;
4766;SDS011;2397;53.576;9.746;2023-06-22T07:15:08;7.97;;;4.33;;
4766;SDS011;2397;53.576;9.746;2023-06-22T07:17:36;4.77;;;4.37;;
4766;SDS011;2397;53.576;9.746;2023-06-22T07:20:03;7.83;;;3.90;;
4766;SDS011;2397;53.576;9.746;2023-06-22T07:22:40;6.20;;;4.47;;
4766;SDS011;2397;53.576;9.746;2023-06-22T07:25:10;11.70;;;4.60;;
4766;SDS011;2397;53.576;9.746;2023-06-22T07:30:23;6.20;;;3.70;;
4766;SDS011;2397;53.576;9.746;2023-06-22T07:32:50;4.73;;;3.70;;
4766;SDS011;2397;53.576;9.746;2023-06-22T07:35:16;3.70;;;3.40;;
4766;SDS011;2397;53.576;9.746;2023-06-22T07:37:43;3.80;;;3.47;;
4766;SDS011;2397;53.576;9.746;2023-06-22T07:40:10;4.40;;;3.63;;
4766;SDS011;2397;53.576;9.746;2023-06-22T07:42:37;7.00;;;3.43;;
4766;SDS011;2397;53.576;9.746;2023-06-22T07:45:04;3.87;;;3.47;;
4766;SDS011;2397;53.576;9.746;2023-06-22T07:47:31;4.07;;;3.17;;
4766;SDS011;2397;53.576;9.746;2023-06-22T07:50:01;3.60;;;3.30;;
4766;SDS011;2397;53.576;9.746;2023-06-22T07:52:29;3.83;;;3.43;;
4766;SDS011;2397;53.576;9.746;2023-06-22T07:54:56;5.70;;;3.57;;
4766;SDS011;2397;53.576;9.746;2023-06-22T07:57:23;4.87;;;3.83;;
4766;SDS011;2397;53.576;9.746;2023-06-22T07:59:58;3.70;;;3.40;;
4766;SDS011;2397;53.576;9.746;2023-06-22T08:02:37;3.93;;;3.50;;
4766;SDS011;2397;53.576;9.746;2023-06-22T08:05:04;4.40;;;4.00;;
4766;SDS011;2397;53.576;9.746;2023-06-22T08:07:47;3.33;;;3.03;;
4766;SDS011;2397;53.576;9.746;2023-06-22T08:10:14;3.83;;;3.53;;
4766;SDS011;2397;53.576;9.746;2023-06-22T08:12:41;3.53;;;3.23;;
4766;SDS011;2397;53.576;9.746;2023-06-22T08:15:09;6.03;;;3.43;;
4766;SDS011;2397;53.576;9.746;2023-06-22T08:17:36;4.30;;;3.30;;
4766;SDS011;2397;53.576;9.746;2023-06-22T08:20:04;4.00;;;3.70;;
4766;SDS011;2397;53.576;9.746;2023-06-22T08:22:35;4.73;;;3.23;;
4766;SDS011;2397;53.576;9.746;2023-06-22T08:25:05;4.20;;;3.30;;
4766;SDS011;2397;53.576;9.746;2023-06-22T08:27:32;5.93;;;3.37;;
4766;SDS011;2397;53.576;9.746;2023-06-22T08:29:59;3.23;;;2.93;;
4766;SDS011;2397;53.576;9.746;2023-06-22T08:32:29;4.37;;;3.17;;
4766;SDS011;2397;53.576;9.746;2023-06-22T08:34:56;4.13;;;3.40;;
4766;SDS011;2397;53.576;9.746;2023-06-22T08:37:23;3.50;;;3.20;;
4766;SDS011;2397;53.576;9.746;2023-06-22T08:39:58;4.17;;;3.77;;
4766;SDS011;2397;53.576;9.746;2023-06-22T08:42:25;3.17;;;2.90;;
4766;SDS011;2397;53.576;9.746;2023-06-22T08:44:52;4.53;;;3.60;;
4766;SDS011;2397;53.576;9.746;2023-06-22T08:47:18;3.10;;;2.90;;
4766;SDS011;2397;53.576;9.746;2023-06-22T08:49:46;8.67;;;3.40;;
4766;SDS011;2397;53.576;9.746;2023-06-22T08:52:13;4.10;;;3.30;;
4766;SDS011;2397;53.576;9.746;2023-06-22T08:54:40;3.07;;;2.77;;
4766;SDS011;2397;53.576;9.746;2023-06-22T08:57:06;5.00;;;3.33;;
4766;SDS011;2397;53.576;9.746;2023-06-22T08:59:33;3.40;;;2.97;;
4766;SDS011;2397;53.576;9.746;2023-06-22T09:01:59;4.13;;;3.00;;
4766;SDS011;2397;53.576;9.746;2023-06-22T09:04:26;3.33;;;3.07;;
4766;SDS011;2397;53.576;9.746;2023-06-22T09:06:53;5.43;;;3.30;;
4766;SDS011;2397;53.576;9.746;2023-06-22T09:09:20;4.60;;;3.10;;
4766;SDS011;2397;53.576;9.746;2023-06-22T09:11:47;3.13;;;2.83;;
4766;SDS011;2397;53.576;9.746;2023-06-22T09:14:14;3.20;;;2.80;;
4766;SDS011;2397;53.576;9.746;2023-06-22T09:16:41;3.80;;;3.50;;
4766;SDS011;2397;53.576;9.746;2023-06-22T09:19:07;3.80;;;3.30;;
4766;SDS011;2397;53.576;9.746;2023-06-22T09:21:34;4.00;;;3.60;;
4766;SDS011;2397;53.576;9.746;2023-06-22T09:24:00;4.97;;;3.57;;
4766;SDS011;2397;53.576;9.746;2023-06-22T09:26:27;3.87;;;3.57;;
4766;SDS011;2397;53.576;9.746;2023-06-22T09:28:53;6.50;;;3.67;;
4766;SDS011;2397;53.576;9.746;2023-06-22T09:31:20;3.33;;;3.03;;
4766;SDS011;2397;53.576;9.746;2023-06-22T09:33:52;3.40;;;3.20;;
4766;SDS011;2397;53.576;9.746;2023-06-22T09:36:20;4.33;;;3.40;;
4766;SDS011;2397;53.576;9.746;2023-06-22T09:38:48;4.53;;;4.13;;
4766;SDS011;2397;53.576;9.746;2023-06-22T09:41:14;6.07;;;4.40;;
4766;SDS011;2397;53.576;9.746;2023-06-22T09:43:42;4.07;;;3.70;;
4766;SDS011;2397;53.576;9.746;2023-06-22T09:46:08;3.60;;;3.30;;
4766;SDS011;2397;53.576;9.746;2023-06-22T09:48:35;3.83;;;3.40;;
4766;SDS011;2397;53.576;9.746;2023-06-22T09:51:06;3.97;;;3.57;;
4766;SDS011;2397;53.576;9.746;2023-06-22T09:53:32;4.10;;;3.70;;
4766;SDS011;2397;53.576;9.746;2023-06-22T09:56:01;4.00;;;3.70;;
4766;SDS011;2397;53.576;9.746;2023-06-22T09:58:28;5.33;;;4.20;;
4766;SDS011;2397;53.576;9.746;2023-06-22T10:00:54;4.50;;;4.10;;
4766;SDS011;2397;53.576;9.746;2023-06-22T10:03:21;4.27;;;3.47;;
4766;SDS011;2397;53.576;9.746;2023-06-22T10:05:49;3.40;;;3.20;;
4766;SDS011;2397;53.576;9.746;2023-06-22T10:08:16;3.37;;;3.07;;
4766;SDS011;2397;53.576;9.746;2023-06-22T10:10:42;3.70;;;2.97;;
4766;SDS011;2397;53.576;9.746;2023-06-22T10:13:10;3.40;;;3.20;;
4766;SDS011;2397;53.576;9.746;2023-06-22T10:15:37;4.57;;;3.30;;
4766;SDS011;2397;53.576;9.746;2023-06-22T10:18:04;5.27;;;3.80;;
4766;SDS011;2397;53.576;9.746;2023-06-22T10:20:31;4.00;;;3.33;;
4766;SDS011;2397;53.576;9.746;2023-06-22T10:22:57;4.47;;;3.67;;
4766;SDS011;2397;53.576;9.746;2023-06-22T10:25:26;5.20;;;3.57;;
4766;SDS011;2397;53.576;9.746;2023-06-22T10:27:53;3.40;;;3.10;;
4766;SDS011;2397;53.576;9.746;2023-06-22T10:30:20;3.40;;;3.20;;
4766;SDS011;2397;53.576;9.746;2023-06-22T10:32:47;4.20;;;3.90;;
4766;SDS011;2397;53.576;9.746;2023-06-22T10:35:14;4.07;;;3.67;;
4766;SDS011;2397;53.576;9.746;2023-06-22T10:37:46;6.07;;;4.27;;
4766;SDS011;2397;53.576;9.746;2023-06-22T10:40:13;4.17;;;3.77;;
4766;SDS011;2397;53.576;9.746;2023-06-22T10:42:41;4.90;;;4.13;;
4766;SDS011;2397;53.576;9.746;2023-06-22T10:45:08;5.60;;;5.20;;
4766;SDS011;2397;53.576;9.746;2023-06-22T10:47:35;4.07;;;3.53;;
4766;SDS011;2397;53.576;9.746;2023-06-22T10:50:02;11.20;;;4.60;;
4766;SDS011;2397;53.576;9.746;2023-06-22T10:52:30;6.70;;;4.10;;
4766;SDS011;2397;53.576;9.746;2023-06-22T10:54:56;9.47;;;4.00;;
4766;SDS011;2397;53.576;9.746;2023-06-22T10:57:24;4.77;;;4.13;;
4766;SDS011;2397;53.576;9.746;2023-06-22T10:59:50;4.40;;;4.00;;
4766;SDS011;2397;53.576;9.746;2023-06-22T11:02:17;4.57;;;4.20;;
4766;SDS011;2397;53.576;9.746;2023-06-22T11:04:44;3.70;;;3.50;;
4766;SDS011;2397;53.576;9.746;2023-06-22T11:07:10;5.03;;;3.67;;
4766;SDS011;2397;53.576;9.746;2023-06-22T11:09:37;7.13;;;4.53;;
4766;SDS011;2397;53.576;9.746;2023-06-22T11:12:05;4.63;;;4.07;;
4766;SDS011;2397;53.576;9.746;2023-06-22T11:14:32;4.97;;;4.13;;
4766;SDS011;2397;53.576;9.746;2023-06-22T11:16:59;4.80;;;4.40;;
4766;SDS011;2397;53.576;9.746;2023-06-22T11:19:26;4.83;;;4.43;;
4766;SDS011;2397;53.576;9.746;2023-06-22T11:21:53;6.50;;;4.23;;
4766;SDS011;2397;53.576;9.746;2023-06-22T11:24:20;4.90;;;4.47;;
4766;SDS011;2397;53.576;9.746;2023-06-22T11:26:46;4.80;;;4.33;;
4766;SDS011;2397;53.576;9.746;2023-06-22T11:29:13;4.10;;;3.80;;
4766;SDS011;2397;53.576;9.746;2023-06-22T11:32:00;4.60;;;4.20;;
4766;SDS011;2397;53.576;9.746;2023-06-22T11:34:27;4.10;;;3.80;;
4766;SDS011;2397;53.576;9.746;2023-06-22T11:36:54;4.40;;;4.00;;
4766;SDS011;2397;53.576;9.746;2023-06-22T11:39:20;4.73;;;4.20;;
4766;SDS011;2397;53.576;9.746;2023-06-22T11:42:04;4.97;;;4.50;;
4766;SDS011;2397;53.576;9.746;2023-06-22T11:44:31;3.77;;;3.47;;
4766;SDS011;2397;53.576;9.746;2023-06-22T11:46:57;5.57;;;4.10;;
4766;SDS011;2397;53.576;9.746;2023-06-22T11:49:24;5.00;;;4.60;;
4766;SDS011;2397;53.576;9.746;2023-06-22T11:51:50;4.30;;;4.00;;
4766;SDS011;2397;53.576;9.746;2023-06-22T11:54:17;3.93;;;3.63;;
4766;SDS011;2397;53.576;9.746;2023-06-22T11:56:43;4.90;;;4.60;;
4766;SDS011;2397;53.576;9.746;2023-06-22T11:59:10;4.57;;;4.17;;
4766;SDS011;2397;53.576;9.746;2023-06-22T12:01:36;4.63;;;4.23;;
4766;SDS011;2397;53.576;9.746;2023-06-22T12:04:03;4.10;;;3.80;;
4766;SDS011;2397;53.576;9.746;2023-06-22T12:06:32;4.93;;;4.37;;
4766;SDS011;2397;53.576;9.746;2023-06-22T12:08:59;4.83;;;4.43;;
4766;SDS011;2397;53.576;9.746;2023-06-22T12:11:26;5.07;;;4.57;;
4766;SDS011;2397;53.576;9.746;2023-06-22T12:13:52;4.73;;;4.40;;
4766;SDS011;2397;53.576;9.746;2023-06-22T12:16:19;5.00;;;4.60;;
4766;SDS011;2397;53.576;9.746;2023-06-22T12:18:47;5.00;;;4.63;;
4766;SDS011;2397;53.576;9.746;2023-06-22T12:21:14;4.27;;;3.97;;
4766;SDS011;2397;53.576;9.746;2023-06-22T12:23:41;4.93;;;4.50;;
4766;SDS011;2397;53.576;9.746;2023-06-22T12:26:07;4.97;;;4.57;;
4766;SDS011;2397;53.576;9.746;2023-06-22T12:28:34;4.77;;;4.47;;
4766;SDS011;2397;53.576;9.746;2023-06-22T12:31:00;4.50;;;4.13;;
4766;SDS011;2397;53.576;9.746;2023-06-22T12:33:27;5.07;;;4.73;;
4766;SDS011;2397;53.576;9.746;2023-06-22T12:35:53;4.80;;;4.40;;
4766;SDS011;2397;53.576;9.746;2023-06-22T12:38:20;5.30;;;4.80;;
4766;SDS011;2397;53.576;9.746;2023-06-22T12:40:46;4.80;;;4.47;;
4766;SDS011;2397;53.576;9.746;2023-06-22T12:43:13;4.50;;;4.10;;
4766;SDS011;2397;53.576;9.746;2023-06-22T12:45:40;4.70;;;4.30;;
4766;SDS011;2397;53.576;9.746;2023-06-22T12:48:06;4.97;;;4.50;;
4766;SDS011;2397;53.576;9.746;2023-06-22T12:50:34;7.10;;;4.50;;
4766;SDS011;2397;53.576;9.746;2023-06-22T12:53:01;4.97;;;4.47;;
4766;SDS011;2397;53.576;9.746;2023-06-22T12:55:29;5.47;;;4.97;;
4766;SDS011;2397;53.576;9.746;2023-06-22T12:57:56;5.53;;;4.93;;
4766;SDS011;2397;53.576;9.746;2023-06-22T13:00:22;5.20;;;4.03;;
4766;SDS011;2397;53.576;9.746;2023-06-22T13:02:49;4.63;;;4.23;;
4766;SDS011;2397;53.576;9.746;2023-06-22T13:05:16;4.80;;;4.40;;
4766;SDS011;2397;53.576;9.746;2023-06-22T13:07:42;5.70;;;5.20;;
4766;SDS011;2397;53.576;9.746;2023-06-22T13:10:09;5.13;;;4.80;;
4766;SDS011;2397;53.576;9.746;2023-06-22T13:12:35;4.97;;;4.57;;
4766;SDS011;2397;53.576;9.746;2023-06-22T13:15:02;5.37;;;4.80;;
4766;SDS011;2397;53.576;9.746;2023-06-22T13:17:29;5.00;;;4.60;;
4766;SDS011;2397;53.576;9.746;2023-06-22T13:19:56;4.80;;;4.50;;
4766;SDS011;2397;53.576;9.746;2023-06-22T13:22:26;5.57;;;4.40;;
4766;SDS011;2397;53.576;9.746;2023-06-22T13:24:54;5.30;;;4.33;;
4766;SDS011;2397;53.576;9.746;2023-06-22T13:27:22;5.73;;;4.37;;
4766;SDS011;2397;53.576;9.746;2023-06-22T13:29:48;5.00;;;4.70;;
4766;SDS011;2397;53.576;9.746;2023-06-22T13:32:15;5.60;;;5.20;;
4766;SDS011;2397;53.576;9.746;2023-06-22T13:34:42;5.10;;;4.63;;
4766;SDS011;2397;53.576;9.746;2023-06-22T13:37:09;5.33;;;4.93;;
4766;SDS011;2397;53.576;9.746;2023-06-22T13:39:36;5.30;;;4.90;;
4766;SDS011;2397;53.576;9.746;2023-06-22T13:42:03;5.53;;;5.13;;
4766;SDS011;2397;53.576;9.746;2023-06-22T13:44:30;4.87;;;4.40;;
4766;SDS011;2397;53.576;9.746;2023-06-22T13:46:56;5.70;;;5.20;;
4766;SDS011;2397;53.576;9.746;2023-06-22T13:49:23;5.40;;;5.00;;
4766;SDS011;2397;53.576;9.746;2023-06-22T13:51:49;5.20;;;4.80;;
4766;SDS011;2397;53.576;9.746;2023-06-22T13:54:16;7.13;;;4.97;;
4766;SDS011;2397;53.576;9.746;2023-06-22T13:56:54;5.77;;;5.27;;
4766;SDS011;2397;53.576;9.746;2023-06-22T13:59:21;6.13;;;5.23;;
4766;SDS011;2397;53.576;9.746;2023-06-22T14:01:48;8.77;;;5.70;;
4766;SDS011;2397;53.576;9.746;2023-06-22T14:04:14;10.53;;;5.70;;
4766;SDS011;2397;53.576;9.746;2023-06-22T14:06:41;5.93;;;5.33;;
4766;SDS011;2397;53.576;9.746;2023-06-22T14:09:07;6.30;;;5.90;;
4766;SDS011;2397;53.576;9.746;2023-06-22T14:11:34;6.60;;;6.10;;
4766;SDS011;2397;53.576;9.746;2023-06-22T14:14:00;7.47;;;6.17;;
4766;SDS011;2397;53.576;9.746;2023-06-22T14:16:27;6.30;;;5.90;;
4766;SDS011;2397;53.576;9.746;2023-06-22T14:18:54;6.97;;;6.37;;
4766;SDS011;2397;53.576;9.746;2023-06-22T14:21:23;6.10;;;5.60;;
4766;SDS011;2397;53.576;9.746;2023-06-22T14:23:50;6.60;;;6.10;;
4766;SDS011;2397;53.576;9.746;2023-06-22T14:26:17;6.40;;;5.90;;
4766;SDS011;2397;53.576;9.746;2023-06-22T14:28:47;7.00;;;6.30;;
4766;SDS011;2397;53.576;9.746;2023-06-22T14:31:17;6.47;;;5.97;;
4766;SDS011;2397;53.576;9.746;2023-06-22T14:33:47;6.57;;;6.07;;
4766;SDS011;2397;53.576;9.746;2023-06-22T14:36:15;6.33;;;5.83;;
4766;SDS011;2397;53.576;9.746;2023-06-22T14:38:43;6.80;;;6.10;;
4766;SDS011;2397;53.576;9.746;2023-06-22T14:41:10;7.00;;;6.43;;
4766;SDS011;2397;53.576;9.746;2023-06-22T14:43:44;5.47;;;5.17;;
4766;SDS011;2397;53.576;9.746;2023-06-22T14:46:14;5.70;;;5.20;;
4766;SDS011;2397;53.576;9.746;2023-06-22T14:48:41;5.43;;;4.93;;
4766;SDS011;2397;53.576;9.746;2023-06-22T14:51:08;5.00;;;4.70;;
4766;SDS011;2397;53.576;9.746;2023-06-22T14:53:39;5.50;;;5.10;;
4766;SDS011;2397;53.576;9.746;2023-06-22T14:56:06;5.50;;;5.10;;
4766;SDS011;2397;53.576;9.746;2023-06-22T14:58:33;12.07;;;5.50;;
4766;SDS011;2397;53.576;9.746;2023-06-22T15:01:00;5.10;;;4.80;;
4766;SDS011;2397;53.576;9.746;2023-06-22T15:03:27;7.60;;;5.10;;
4766;SDS011;2397;53.576;9.746;2023-06-22T15:05:57;6.63;;;6.07;;
4766;SDS011;2397;53.576;9.746;2023-06-22T15:08:24;7.30;;;6.70;;
4766;SDS011;2397;53.576;9.746;2023-06-22T15:10:52;6.60;;;5.83;;
4766;SDS011;2397;53.576;9.746;2023-06-22T15:13:19;5.83;;;5.43;;
4766;SDS011;2397;53.576;9.746;2023-06-22T15:15:46;6.70;;;6.17;;
4766;SDS011;2397;53.576;9.746;2023-06-22T15:18:14;6.23;;;5.83;;
4766;SDS011;2397;53.576;9.746;2023-06-22T15:20:42;6.73;;;6.00;;
4766;SDS011;2397;53.576;9.746;2023-06-22T15:23:13;6.00;;;5.60;;
4766;SDS011;2397;53.576;9.746;2023-06-22T15:25:40;5.73;;;5.23;;
4766;SDS011;2397;53.576;9.746;2023-06-22T15:28:07;6.37;;;5.80;;
4766;SDS011;2397;53.576;9.746;2023-06-22T15:30:33;7.57;;;6.93;;
4766;SDS011;2397;53.576;9.746;2023-06-22T15:33:00;6.70;;;5.20;;